sensor_id;sensor_type;location;lat;lon;timestamp;temperature;humidity
42097;DHT22;27754;45.414;11.084;2022-11-25T00:01:22;5.60;91.00
42097;DHT22;27754;45.414;11.084;2022-11-25T00:03:50;5.60;91.20
42097;DHT22;27754;45.414;11.084;2022-11-25T00:06:20;5.70;91.40
42097;DHT22;27754;45.414;11.084;2022-11-25T00:08:49;5.70;91.50
42097;DHT22;27754;45.414;11.084;2022-11-25T00:11:17;5.70;91.60
42097;DHT22;27754;45.414;11.084;2022-11-25T00:13:45;5.70;91.60
42097;DHT22;27754;45.414;11.084;2022-11-25T00:16:18;5.70;91.70
42097;DHT22;27754;45.414;11.084;2022-11-25T00:18:50;5.70;91.60
42097;DHT22;27754;45.414;11.084;2022-11-25T00:21:22;5.70;91.50
42097;DHT22;27754;45.414;11.084;2022-11-25T00:23:51;5.70;91.50
42097;DHT22;27754;45.414;11.084;2022-11-25T00:26:20;5.60;91.60
42097;DHT22;27754;45.414;11.084;2022-11-25T00:28:48;5.60;91.80
42097;DHT22;27754;45.414;11.084;2022-11-25T00:31:20;5.70;91.80
42097;DHT22;27754;45.414;11.084;2022-11-25T00:33:48;5.60;91.80
42097;DHT22;27754;45.414;11.084;2022-11-25T00:36:19;5.50;91.90
42097;DHT22;27754;45.414;11.084;2022-11-25T00:38:52;5.50;92.30
42097;DHT22;27754;45.414;11.084;2022-11-25T00:41:19;5.50;92.30
42097;DHT22;27754;45.414;11.084;2022-11-25T00:44:04;5.50;92.30
42097;DHT22;27754;45.414;11.084;2022-11-25T00:46:50;5.50;92.00
42097;DHT22;27754;45.414;11.084;2022-11-25T00:49:17;5.40;92.00
42097;DHT22;27754;45.414;11.084;2022-11-25T00:51:44;5.40;91.90
42097;DHT22;27754;45.414;11.084;2022-11-25T00:54:11;5.30;91.80
42097;DHT22;27754;45.414;11.084;2022-11-25T00:56:38;5.40;91.80
42097;DHT22;27754;45.414;11.084;2022-11-25T00:59:06;5.40;91.90
42097;DHT22;27754;45.414;11.084;2022-11-25T01:01:34;5.30;91.70
42097;DHT22;27754;45.414;11.084;2022-11-25T01:04:02;5.40;92.10
42097;DHT22;27754;45.414;11.084;2022-11-25T01:06:29;5.40;92.40
42097;DHT22;27754;45.414;11.084;2022-11-25T01:08:56;5.60;92.50
42097;DHT22;27754;45.414;11.084;2022-11-25T01:11:23;5.50;92.30
42097;DHT22;27754;45.414;11.084;2022-11-25T01:13:50;5.50;92.20
42097;DHT22;27754;45.414;11.084;2022-11-25T01:16:27;5.60;92.20
42097;DHT22;27754;45.414;11.084;2022-11-25T01:18:55;5.50;92.00
42097;DHT22;27754;45.414;11.084;2022-11-25T01:21:24;5.50;91.90
42097;DHT22;27754;45.414;11.084;2022-11-25T01:23:52;5.60;91.90
42097;DHT22;27754;45.414;11.084;2022-11-25T01:26:22;5.50;91.70
42097;DHT22;27754;45.414;11.084;2022-11-25T01:28:56;5.50;91.30
42097;DHT22;27754;45.414;11.084;2022-11-25T01:31:25;5.50;91.40
42097;DHT22;27754;45.414;11.084;2022-11-25T01:34:01;5.50;91.40
42097;DHT22;27754;45.414;11.084;2022-11-25T01:36:29;5.40;91.10
42097;DHT22;27754;45.414;11.084;2022-11-25T01:38:57;5.30;90.70
42097;DHT22;27754;45.414;11.084;2022-11-25T01:41:27;5.20;90.80
42097;DHT22;27754;45.414;11.084;2022-11-25T01:44:22;5.20;91.10
42097;DHT22;27754;45.414;11.084;2022-11-25T01:47:10;5.10;91.10
42097;DHT22;27754;45.414;11.084;2022-11-25T01:52:25;5.00;91.90
42097;DHT22;27754;45.414;11.084;2022-11-25T01:57:37;5.10;92.00
42097;DHT22;27754;45.414;11.084;2022-11-25T02:00:08;5.10;92.00
42097;DHT22;27754;45.414;11.084;2022-11-25T02:02:47;5.00;92.10
42097;DHT22;27754;45.414;11.084;2022-11-25T02:05:18;5.10;92.30
42097;DHT22;27754;45.414;11.084;2022-11-25T02:07:48;5.10;92.60
42097;DHT22;27754;45.414;11.084;2022-11-25T02:10:21;5.10;92.60
42097;DHT22;27754;45.414;11.084;2022-11-25T02:12:50;5.20;92.60
42097;DHT22;27754;45.414;11.084;2022-11-25T02:15:18;5.10;92.70
42097;DHT22;27754;45.414;11.084;2022-11-25T02:17:46;5.10;92.50
42097;DHT22;27754;45.414;11.084;2022-11-25T02:20:16;5.10;92.30
42097;DHT22;27754;45.414;11.084;2022-11-25T02:25:45;5.00;92.30
42097;DHT22;27754;45.414;11.084;2022-11-25T02:28:18;4.90;92.10
42097;DHT22;27754;45.414;11.084;2022-11-25T02:30:47;4.80;91.40
42097;DHT22;27754;45.414;11.084;2022-11-25T02:33:14;4.70;91.80
42097;DHT22;27754;45.414;11.084;2022-11-25T02:41:21;4.80;92.40
42097;DHT22;27754;45.414;11.084;2022-11-25T02:43:56;4.80;92.50
42097;DHT22;27754;45.414;11.084;2022-11-25T02:46:25;4.80;92.40
42097;DHT22;27754;45.414;11.084;2022-11-25T02:48:54;4.80;92.70
42097;DHT22;27754;45.414;11.084;2022-11-25T02:51:42;4.80;93.00
42097;DHT22;27754;45.414;11.084;2022-11-25T02:54:11;4.90;93.10
42097;DHT22;27754;45.414;11.084;2022-11-25T02:56:39;4.90;93.00
42097;DHT22;27754;45.414;11.084;2022-11-25T02:59:07;5.00;92.90
42097;DHT22;27754;45.414;11.084;2022-11-25T03:01:35;4.90;92.60
42097;DHT22;27754;45.414;11.084;2022-11-25T03:04:05;5.00;92.60
42097;DHT22;27754;45.414;11.084;2022-11-25T03:06:33;4.80;92.00
42097;DHT22;27754;45.414;11.084;2022-11-25T03:09:01;4.90;92.50
42097;DHT22;27754;45.414;11.084;2022-11-25T03:11:29;4.90;92.50
42097;DHT22;27754;45.414;11.084;2022-11-25T03:14:22;4.90;92.60
42097;DHT22;27754;45.414;11.084;2022-11-25T03:16:49;4.90;92.50
42097;DHT22;27754;45.414;11.084;2022-11-25T03:19:16;5.00;92.70
42097;DHT22;27754;45.414;11.084;2022-11-25T03:21:43;5.00;92.70
42097;DHT22;27754;45.414;11.084;2022-11-25T03:24:10;5.00;92.70
42097;DHT22;27754;45.414;11.084;2022-11-25T03:26:37;5.10;92.90
42097;DHT22;27754;45.414;11.084;2022-11-25T03:29:03;5.20;92.90
42097;DHT22;27754;45.414;11.084;2022-11-25T03:31:32;5.20;92.90
42097;DHT22;27754;45.414;11.084;2022-11-25T03:33:59;5.20;92.70
42097;DHT22;27754;45.414;11.084;2022-11-25T03:36:26;5.20;92.80
42097;DHT22;27754;45.414;11.084;2022-11-25T03:38:53;5.30;93.00
42097;DHT22;27754;45.414;11.084;2022-11-25T03:41:22;5.30;92.70
42097;DHT22;27754;45.414;11.084;2022-11-25T03:43:49;5.20;92.40
42097;DHT22;27754;45.414;11.084;2022-11-25T03:46:16;5.10;92.10
42097;DHT22;27754;45.414;11.084;2022-11-25T03:48:43;5.10;92.20
42097;DHT22;27754;45.414;11.084;2022-11-25T03:51:10;5.00;92.20
42097;DHT22;27754;45.414;11.084;2022-11-25T03:53:37;5.10;92.50
42097;DHT22;27754;45.414;11.084;2022-11-25T03:56:07;5.10;92.50
42097;DHT22;27754;45.414;11.084;2022-11-25T03:58:34;5.00;92.60
42097;DHT22;27754;45.414;11.084;2022-11-25T04:01:03;5.10;92.60
42097;DHT22;27754;45.414;11.084;2022-11-25T04:03:30;5.10;92.60
42097;DHT22;27754;45.414;11.084;2022-11-25T04:05:58;5.10;92.70
42097;DHT22;27754;45.414;11.084;2022-11-25T04:08:25;5.10;92.60
42097;DHT22;27754;45.414;11.084;2022-11-25T04:10:53;5.10;92.60
42097;DHT22;27754;45.414;11.084;2022-11-25T04:13:23;5.20;92.60
42097;DHT22;27754;45.414;11.084;2022-11-25T04:15:51;5.10;92.60
42097;DHT22;27754;45.414;11.084;2022-11-25T04:18:19;5.10;92.80
42097;DHT22;27754;45.414;11.084;2022-11-25T04:20:50;5.10;92.80
42097;DHT22;27754;45.414;11.084;2022-11-25T04:23:17;5.10;92.80
42097;DHT22;27754;45.414;11.084;2022-11-25T04:25:52;5.10;92.80
42097;DHT22;27754;45.414;11.084;2022-11-25T04:28:25;5.20;92.70
42097;DHT22;27754;45.414;11.084;2022-11-25T04:30:52;5.20;92.80
42097;DHT22;27754;45.414;11.084;2022-11-25T04:33:19;5.10;92.30
42097;DHT22;27754;45.414;11.084;2022-11-25T04:35:47;5.10;92.50
42097;DHT22;27754;45.414;11.084;2022-11-25T04:38:14;5.10;92.60
42097;DHT22;27754;45.414;11.084;2022-11-25T04:40:41;5.10;92.60
42097;DHT22;27754;45.414;11.084;2022-11-25T04:43:21;5.20;92.70
42097;DHT22;27754;45.414;11.084;2022-11-25T04:45:53;5.30;92.50
42097;DHT22;27754;45.414;11.084;2022-11-25T04:48:41;5.40;92.60
42097;DHT22;27754;45.414;11.084;2022-11-25T04:51:08;5.50;92.50
42097;DHT22;27754;45.414;11.084;2022-11-25T04:53:35;5.50;92.20
42097;DHT22;27754;45.414;11.084;2022-11-25T04:56:02;5.50;92.10
42097;DHT22;27754;45.414;11.084;2022-11-25T04:58:35;5.50;92.20
42097;DHT22;27754;45.414;11.084;2022-11-25T05:01:20;5.50;92.20
42097;DHT22;27754;45.414;11.084;2022-11-25T05:03:51;5.40;91.90
42097;DHT22;27754;45.414;11.084;2022-11-25T05:06:24;5.40;91.50
42097;DHT22;27754;45.414;11.084;2022-11-25T05:08:52;5.30;91.60
42097;DHT22;27754;45.414;11.084;2022-11-25T05:11:21;5.20;91.90
42097;DHT22;27754;45.414;11.084;2022-11-25T05:13:50;5.30;92.30
42097;DHT22;27754;45.414;11.084;2022-11-25T05:16:16;5.30;92.60
42097;DHT22;27754;45.414;11.084;2022-11-25T05:18:44;5.30;92.70
42097;DHT22;27754;45.414;11.084;2022-11-25T05:21:12;5.40;92.60
42097;DHT22;27754;45.414;11.084;2022-11-25T05:23:40;5.40;92.60
42097;DHT22;27754;45.414;11.084;2022-11-25T05:26:08;5.50;92.60
42097;DHT22;27754;45.414;11.084;2022-11-25T05:28:47;5.50;92.50
42097;DHT22;27754;45.414;11.084;2022-11-25T05:31:14;5.60;92.40
42097;DHT22;27754;45.414;11.084;2022-11-25T05:33:42;5.50;92.40
42097;DHT22;27754;45.414;11.084;2022-11-25T05:36:09;5.50;92.40
42097;DHT22;27754;45.414;11.084;2022-11-25T05:38:42;5.50;92.30
42097;DHT22;27754;45.414;11.084;2022-11-25T05:41:13;5.50;92.40
42097;DHT22;27754;45.414;11.084;2022-11-25T05:43:42;5.50;92.30
42097;DHT22;27754;45.414;11.084;2022-11-25T05:46:10;5.40;92.30
42097;DHT22;27754;45.414;11.084;2022-11-25T05:48:43;5.50;92.40
42097;DHT22;27754;45.414;11.084;2022-11-25T05:51:10;5.40;92.40
42097;DHT22;27754;45.414;11.084;2022-11-25T05:53:38;5.50;92.60
42097;DHT22;27754;45.414;11.084;2022-11-25T05:56:06;5.40;92.60
42097;DHT22;27754;45.414;11.084;2022-11-25T05:58:53;5.40;92.60
42097;DHT22;27754;45.414;11.084;2022-11-25T06:01:22;5.40;92.70
42097;DHT22;27754;45.414;11.084;2022-11-25T06:03:49;5.40;92.70
42097;DHT22;27754;45.414;11.084;2022-11-25T06:06:17;5.40;92.80
42097;DHT22;27754;45.414;11.084;2022-11-25T06:08:44;5.40;92.90
42097;DHT22;27754;45.414;11.084;2022-11-25T06:11:14;5.40;92.90
42097;DHT22;27754;45.414;11.084;2022-11-25T06:13:42;5.40;93.10
42097;DHT22;27754;45.414;11.084;2022-11-25T06:16:15;5.50;93.10
42097;DHT22;27754;45.414;11.084;2022-11-25T06:18:48;5.60;93.10
42097;DHT22;27754;45.414;11.084;2022-11-25T06:21:16;5.60;93.10
42097;DHT22;27754;45.414;11.084;2022-11-25T06:23:44;5.60;93.00
42097;DHT22;27754;45.414;11.084;2022-11-25T06:26:19;5.60;93.00
42097;DHT22;27754;45.414;11.084;2022-11-25T06:28:48;5.60;92.90
42097;DHT22;27754;45.414;11.084;2022-11-25T06:31:20;5.60;92.80
42097;DHT22;27754;45.414;11.084;2022-11-25T06:34:03;5.60;92.60
42097;DHT22;27754;45.414;11.084;2022-11-25T06:36:32;5.60;92.60
42097;DHT22;27754;45.414;11.084;2022-11-25T06:38:59;5.50;92.70
42097;DHT22;27754;45.414;11.084;2022-11-25T06:41:26;5.50;92.80
42097;DHT22;27754;45.414;11.084;2022-11-25T06:43:53;5.60;92.80
42097;DHT22;27754;45.414;11.084;2022-11-25T06:46:20;5.50;92.50
42097;DHT22;27754;45.414;11.084;2022-11-25T06:48:52;5.40;92.00
42097;DHT22;27754;45.414;11.084;2022-11-25T06:51:19;5.30;92.10
42097;DHT22;27754;45.414;11.084;2022-11-25T06:53:46;5.30;92.30
42097;DHT22;27754;45.414;11.084;2022-11-25T06:56:18;5.40;92.50
42097;DHT22;27754;45.414;11.084;2022-11-25T06:58:46;5.50;92.60
42097;DHT22;27754;45.414;11.084;2022-11-25T07:01:15;5.50;92.30
42097;DHT22;27754;45.414;11.084;2022-11-25T07:03:44;5.50;92.00
42097;DHT22;27754;45.414;11.084;2022-11-25T07:06:12;5.50;92.10
42097;DHT22;27754;45.414;11.084;2022-11-25T07:08:40;5.60;92.00
42097;DHT22;27754;45.414;11.084;2022-11-25T07:11:18;5.60;91.90
42097;DHT22;27754;45.414;11.084;2022-11-25T07:13:46;5.60;92.00
42097;DHT22;27754;45.414;11.084;2022-11-25T07:16:13;5.50;92.10
42097;DHT22;27754;45.414;11.084;2022-11-25T07:18:41;5.50;92.10
42097;DHT22;27754;45.414;11.084;2022-11-25T07:21:11;5.50;92.10
42097;DHT22;27754;45.414;11.084;2022-11-25T07:23:38;5.50;91.90
42097;DHT22;27754;45.414;11.084;2022-11-25T07:26:14;5.40;91.80
42097;DHT22;27754;45.414;11.084;2022-11-25T07:28:41;5.40;91.80
42097;DHT22;27754;45.414;11.084;2022-11-25T07:33:56;5.30;91.70
42097;DHT22;27754;45.414;11.084;2022-11-25T07:36:23;5.40;91.80
42097;DHT22;27754;45.414;11.084;2022-11-25T07:38:50;5.40;91.80
42097;DHT22;27754;45.414;11.084;2022-11-25T07:41:20;5.60;91.80
42097;DHT22;27754;45.414;11.084;2022-11-25T07:43:49;5.80;91.70
42097;DHT22;27754;45.414;11.084;2022-11-25T07:46:27;5.90;91.60
42097;DHT22;27754;45.414;11.084;2022-11-25T07:48:56;5.90;91.60
42097;DHT22;27754;45.414;11.084;2022-11-25T07:51:30;6.00;91.70
42097;DHT22;27754;45.414;11.084;2022-11-25T07:53:59;6.10;91.80
42097;DHT22;27754;45.414;11.084;2022-11-25T07:56:27;6.40;91.30
42097;DHT22;27754;45.414;11.084;2022-11-25T07:58:55;6.40;90.80
42097;DHT22;27754;45.414;11.084;2022-11-25T08:01:22;6.50;90.70
42097;DHT22;27754;45.414;11.084;2022-11-25T08:03:51;6.70;90.50
42097;DHT22;27754;45.414;11.084;2022-11-25T08:06:24;6.80;89.90
42097;DHT22;27754;45.414;11.084;2022-11-25T08:08:51;6.80;89.90
42097;DHT22;27754;45.414;11.084;2022-11-25T08:11:29;6.80;89.80
42097;DHT22;27754;45.414;11.084;2022-11-25T08:13:57;6.90;89.90
42097;DHT22;27754;45.414;11.084;2022-11-25T08:16:26;7.00;89.80
42097;DHT22;27754;45.414;11.084;2022-11-25T08:18:54;7.10;89.90
42097;DHT22;27754;45.414;11.084;2022-11-25T08:21:21;7.10;89.70
42097;DHT22;27754;45.414;11.084;2022-11-25T08:23:48;7.20;89.50
42097;DHT22;27754;45.414;11.084;2022-11-25T08:26:23;7.30;89.40
42097;DHT22;27754;45.414;11.084;2022-11-25T08:28:59;7.40;89.00
42097;DHT22;27754;45.414;11.084;2022-11-25T08:31:29;7.40;89.10
42097;DHT22;27754;45.414;11.084;2022-11-25T08:33:57;7.50;89.20
42097;DHT22;27754;45.414;11.084;2022-11-25T08:36:26;7.60;89.20
42097;DHT22;27754;45.414;11.084;2022-11-25T08:38:54;7.60;89.30
42097;DHT22;27754;45.414;11.084;2022-11-25T08:41:29;7.70;89.40
42097;DHT22;27754;45.414;11.084;2022-11-25T08:43:59;7.80;89.40
42097;DHT22;27754;45.414;11.084;2022-11-25T08:46:30;7.80;89.40
42097;DHT22;27754;45.414;11.084;2022-11-25T08:49:00;7.90;89.40
42097;DHT22;27754;45.414;11.084;2022-11-25T08:51:32;8.00;89.40
42097;DHT22;27754;45.414;11.084;2022-11-25T08:53:59;8.00;89.30
42097;DHT22;27754;45.414;11.084;2022-11-25T08:56:27;8.10;89.30
42097;DHT22;27754;45.414;11.084;2022-11-25T08:58:55;8.20;88.90
42097;DHT22;27754;45.414;11.084;2022-11-25T09:01:23;8.30;88.50
42097;DHT22;27754;45.414;11.084;2022-11-25T09:03:52;8.30;87.30
42097;DHT22;27754;45.414;11.084;2022-11-25T09:06:22;8.40;86.80
42097;DHT22;27754;45.414;11.084;2022-11-25T09:08:50;8.50;86.30
42097;DHT22;27754;45.414;11.084;2022-11-25T09:11:17;8.60;85.10
42097;DHT22;27754;45.414;11.084;2022-11-25T09:13:44;8.70;83.90
42097;DHT22;27754;45.414;11.084;2022-11-25T09:16:11;8.80;83.20
42097;DHT22;27754;45.414;11.084;2022-11-25T09:18:38;9.00;82.80
42097;DHT22;27754;45.414;11.084;2022-11-25T09:21:16;9.10;81.60
42097;DHT22;27754;45.414;11.084;2022-11-25T09:23:43;9.20;81.60
42097;DHT22;27754;45.414;11.084;2022-11-25T09:26:30;9.30;81.50
42097;DHT22;27754;45.414;11.084;2022-11-25T09:28:58;9.40;80.10
42097;DHT22;27754;45.414;11.084;2022-11-25T09:31:25;9.40;78.40
42097;DHT22;27754;45.414;11.084;2022-11-25T09:33:52;9.50;78.20
42097;DHT22;27754;45.414;11.084;2022-11-25T09:36:19;9.60;77.90
42097;DHT22;27754;45.414;11.084;2022-11-25T09:38:47;9.60;77.90
42097;DHT22;27754;45.414;11.084;2022-11-25T09:41:27;9.70;77.30
42097;DHT22;27754;45.414;11.084;2022-11-25T09:51:00;9.90;76.60
42097;DHT22;27754;45.414;11.084;2022-11-25T09:53:47;9.90;77.00
42097;DHT22;27754;45.414;11.084;2022-11-25T09:56:33;10.00;78.10
42097;DHT22;27754;45.414;11.084;2022-11-25T09:59:29;10.10;78.90
42097;DHT22;27754;45.414;11.084;2022-11-25T10:01:59;10.20;79.80
42097;DHT22;27754;45.414;11.084;2022-11-25T10:04:37;10.30;80.20
42097;DHT22;27754;45.414;11.084;2022-11-25T10:07:12;10.30;79.80
42097;DHT22;27754;45.414;11.084;2022-11-25T10:09:43;10.30;80.20
42097;DHT22;27754;45.414;11.084;2022-11-25T10:12:20;10.40;81.00
42097;DHT22;27754;45.414;11.084;2022-11-25T10:14:54;10.40;81.30
42097;DHT22;27754;45.414;11.084;2022-11-25T10:17:46;10.40;81.50
42097;DHT22;27754;45.414;11.084;2022-11-25T10:20:30;10.50;81.60
42097;DHT22;27754;45.414;11.084;2022-11-25T10:23:04;10.50;81.50
42097;DHT22;27754;45.414;11.084;2022-11-25T10:25:44;10.50;81.50
42097;DHT22;27754;45.414;11.084;2022-11-25T10:33:29;10.60;81.60
42097;DHT22;27754;45.414;11.084;2022-11-25T10:41:31;10.80;81.70
42097;DHT22;27754;45.414;11.084;2022-11-25T10:43:58;10.80;81.70
42097;DHT22;27754;45.414;11.084;2022-11-25T10:46:51;10.90;82.00
42097;DHT22;27754;45.414;11.084;2022-11-25T10:49:58;10.90;81.80
42097;DHT22;27754;45.414;11.084;2022-11-25T10:52:28;11.00;81.50
42097;DHT22;27754;45.414;11.084;2022-11-25T10:55:18;11.10;81.30
42097;DHT22;27754;45.414;11.084;2022-11-25T10:57:45;11.10;81.40
42097;DHT22;27754;45.414;11.084;2022-11-25T11:03:23;11.30;82.10
42097;DHT22;27754;45.414;11.084;2022-11-25T11:05:52;11.40;79.90
42097;DHT22;27754;45.414;11.084;2022-11-25T11:08:22;11.60;79.60
42097;DHT22;27754;45.414;11.084;2022-11-25T11:13:36;11.80;77.80
42097;DHT22;27754;45.414;11.084;2022-11-25T11:16:21;11.90;77.10
42097;DHT22;27754;45.414;11.084;2022-11-25T11:18:49;12.00;77.60
42097;DHT22;27754;45.414;11.084;2022-11-25T11:21:35;12.10;77.60
42097;DHT22;27754;45.414;11.084;2022-11-25T11:24:19;12.10;77.10
42097;DHT22;27754;45.414;11.084;2022-11-25T11:27:14;12.20;76.90
42097;DHT22;27754;45.414;11.084;2022-11-25T11:29:43;12.20;77.40
42097;DHT22;27754;45.414;11.084;2022-11-25T11:32:22;12.30;77.70
42097;DHT22;27754;45.414;11.084;2022-11-25T11:43:14;12.40;77.30
42097;DHT22;27754;45.414;11.084;2022-11-25T11:49:16;12.40;77.80
42097;DHT22;27754;45.414;11.084;2022-11-25T11:52:01;12.40;77.40
42097;DHT22;27754;45.414;11.084;2022-11-25T11:54:34;12.40;77.30
42097;DHT22;27754;45.414;11.084;2022-11-25T11:59:45;12.40;77.10
42097;DHT22;27754;45.414;11.084;2022-11-25T12:02:28;12.40;77.00
42097;DHT22;27754;45.414;11.084;2022-11-25T12:05:16;12.40;77.00
42097;DHT22;27754;45.414;11.084;2022-11-25T12:07:53;12.40;76.80
42097;DHT22;27754;45.414;11.084;2022-11-25T12:10:37;12.40;77.00
42097;DHT22;27754;45.414;11.084;2022-11-25T12:15:59;12.40;77.90
42097;DHT22;27754;45.414;11.084;2022-11-25T12:27:41;12.40;75.60
42097;DHT22;27754;45.414;11.084;2022-11-25T12:30:20;12.40;75.70
42097;DHT22;27754;45.414;11.084;2022-11-25T12:33:11;12.40;75.50
42097;DHT22;27754;45.414;11.084;2022-11-25T12:35:57;12.50;74.60
42097;DHT22;27754;45.414;11.084;2022-11-25T12:41:51;12.50;74.70
42097;DHT22;27754;45.414;11.084;2022-11-25T12:46:58;12.60;74.20
42097;DHT22;27754;45.414;11.084;2022-11-25T12:49:34;12.60;74.20
42097;DHT22;27754;45.414;11.084;2022-11-25T12:52:41;12.60;74.00
42097;DHT22;27754;45.414;11.084;2022-11-25T12:55:21;12.60;73.60
42097;DHT22;27754;45.414;11.084;2022-11-25T13:06:40;12.50;73.00
42097;DHT22;27754;45.414;11.084;2022-11-25T13:17:17;12.40;73.40
42097;DHT22;27754;45.414;11.084;2022-11-25T13:19:45;12.40;73.50
42097;DHT22;27754;45.414;11.084;2022-11-25T13:22:25;12.40;74.30
42097;DHT22;27754;45.414;11.084;2022-11-25T13:24:58;12.40;74.00
42097;DHT22;27754;45.414;11.084;2022-11-25T13:27:54;12.50;73.90
42097;DHT22;27754;45.414;11.084;2022-11-25T13:35:52;12.50;72.60
42097;DHT22;27754;45.414;11.084;2022-11-25T13:43:55;12.50;73.00
42097;DHT22;27754;45.414;11.084;2022-11-25T13:46:49;12.40;73.20
42097;DHT22;27754;45.414;11.084;2022-11-25T13:49:25;12.40;73.40
42097;DHT22;27754;45.414;11.084;2022-11-25T13:51:56;12.40;72.70
42097;DHT22;27754;45.414;11.084;2022-11-25T13:54:38;12.40;72.80
42097;DHT22;27754;45.414;11.084;2022-11-25T13:57:29;12.40;72.70
42097;DHT22;27754;45.414;11.084;2022-11-25T14:00:40;12.30;73.50
42097;DHT22;27754;45.414;11.084;2022-11-25T14:08:50;12.10;75.10
42097;DHT22;27754;45.414;11.084;2022-11-25T14:26:00;11.80;77.00
42097;DHT22;27754;45.414;11.084;2022-11-25T14:31:23;11.60;77.90
42097;DHT22;27754;45.414;11.084;2022-11-25T14:34:00;11.60;78.10
42097;DHT22;27754;45.414;11.084;2022-11-25T14:36:40;11.40;78.60
42097;DHT22;27754;45.414;11.084;2022-11-25T14:39:35;11.40;78.70
42097;DHT22;27754;45.414;11.084;2022-11-25T14:42:08;11.40;78.70
42097;DHT22;27754;45.414;11.084;2022-11-25T14:44:51;11.40;78.90
42097;DHT22;27754;45.414;11.084;2022-11-25T14:47:26;11.30;78.90
42097;DHT22;27754;45.414;11.084;2022-11-25T14:49:54;11.30;79.10
42097;DHT22;27754;45.414;11.084;2022-11-25T14:52:42;11.30;79.00
42097;DHT22;27754;45.414;11.084;2022-11-25T14:55:12;11.20;79.10
42097;DHT22;27754;45.414;11.084;2022-11-25T14:57:42;11.20;79.10
42097;DHT22;27754;45.414;11.084;2022-11-25T15:00:12;11.30;79.00
42097;DHT22;27754;45.414;11.084;2022-11-25T15:03:02;11.40;78.60
42097;DHT22;27754;45.414;11.084;2022-11-25T15:08:10;11.80;77.50
42097;DHT22;27754;45.414;11.084;2022-11-25T15:10:52;11.90;77.20
42097;DHT22;27754;45.414;11.084;2022-11-25T15:13:33;11.90;77.20
42097;DHT22;27754;45.414;11.084;2022-11-25T15:16:16;11.70;77.60
42097;DHT22;27754;45.414;11.084;2022-11-25T15:18:56;11.50;78.20
42097;DHT22;27754;45.414;11.084;2022-11-25T15:21:33;11.40;78.50
42097;DHT22;27754;45.414;11.084;2022-11-25T15:24:26;11.30;79.10
42097;DHT22;27754;45.414;11.084;2022-11-25T15:26:59;11.20;79.60
42097;DHT22;27754;45.414;11.084;2022-11-25T15:29:28;11.10;80.00
42097;DHT22;27754;45.414;11.084;2022-11-25T15:31:58;10.90;80.40
42097;DHT22;27754;45.414;11.084;2022-11-25T15:34:28;10.90;80.70
42097;DHT22;27754;45.414;11.084;2022-11-25T15:36:59;10.80;81.20
42097;DHT22;27754;45.414;11.084;2022-11-25T15:39:27;10.80;81.40
42097;DHT22;27754;45.414;11.084;2022-11-25T15:44:32;10.60;81.90
42097;DHT22;27754;45.414;11.084;2022-11-25T15:47:21;10.60;82.20
42097;DHT22;27754;45.414;11.084;2022-11-25T15:50:17;10.50;82.10
42097;DHT22;27754;45.414;11.084;2022-11-25T15:52:46;10.40;82.50
42097;DHT22;27754;45.414;11.084;2022-11-25T15:55:23;10.50;82.20
42097;DHT22;27754;45.414;11.084;2022-11-25T15:57:55;10.60;82.10
42097;DHT22;27754;45.414;11.084;2022-11-25T16:00:24;10.50;82.10
42097;DHT22;27754;45.414;11.084;2022-11-25T16:02:52;10.60;82.20
42097;DHT22;27754;45.414;11.084;2022-11-25T16:05:33;10.50;82.40
42097;DHT22;27754;45.414;11.084;2022-11-25T16:10:51;10.50;82.60
42097;DHT22;27754;45.414;11.084;2022-11-25T16:21:13;10.20;83.60
42097;DHT22;27754;45.414;11.084;2022-11-25T16:23:44;10.10;84.00
42097;DHT22;27754;45.414;11.084;2022-11-25T16:26:24;10.00;84.00
42097;DHT22;27754;45.414;11.084;2022-11-25T16:28:55;9.90;84.50
42097;DHT22;27754;45.414;11.084;2022-11-25T16:31:23;10.00;84.70
42097;DHT22;27754;45.414;11.084;2022-11-25T16:34:13;10.00;84.70
42097;DHT22;27754;45.414;11.084;2022-11-25T16:36:41;9.80;85.30
42097;DHT22;27754;45.414;11.084;2022-11-25T16:39:08;9.70;85.70
42097;DHT22;27754;45.414;11.084;2022-11-25T16:41:36;9.90;86.00
42097;DHT22;27754;45.414;11.084;2022-11-25T16:44:04;9.70;85.70
42097;DHT22;27754;45.414;11.084;2022-11-25T16:46:34;9.60;85.90
42097;DHT22;27754;45.414;11.084;2022-11-25T16:49:07;9.50;86.40
42097;DHT22;27754;45.414;11.084;2022-11-25T16:51:38;9.50;86.50
42097;DHT22;27754;45.414;11.084;2022-11-25T16:54:05;9.50;86.20
42097;DHT22;27754;45.414;11.084;2022-11-25T16:56:33;9.40;86.40
42097;DHT22;27754;45.414;11.084;2022-11-25T16:59:02;9.40;86.50
42097;DHT22;27754;45.414;11.084;2022-11-25T17:01:30;9.20;86.90
42097;DHT22;27754;45.414;11.084;2022-11-25T17:03:58;9.20;87.20
42097;DHT22;27754;45.414;11.084;2022-11-25T17:06:27;9.20;87.00
42097;DHT22;27754;45.414;11.084;2022-11-25T17:08:55;9.10;87.30
42097;DHT22;27754;45.414;11.084;2022-11-25T17:11:34;9.00;87.50
42097;DHT22;27754;45.414;11.084;2022-11-25T17:14:26;9.00;87.20
42097;DHT22;27754;45.414;11.084;2022-11-25T17:16:55;8.90;87.50
42097;DHT22;27754;45.414;11.084;2022-11-25T17:19:22;8.80;87.50
42097;DHT22;27754;45.414;11.084;2022-11-25T17:21:49;8.70;87.80
42097;DHT22;27754;45.414;11.084;2022-11-25T17:24:21;8.70;87.70
42097;DHT22;27754;45.414;11.084;2022-11-25T17:27:02;8.60;87.90
42097;DHT22;27754;45.414;11.084;2022-11-25T17:29:36;8.40;88.40
42097;DHT22;27754;45.414;11.084;2022-11-25T17:32:05;8.40;89.00
42097;DHT22;27754;45.414;11.084;2022-11-25T17:34:32;8.40;89.10
42097;DHT22;27754;45.414;11.084;2022-11-25T17:37:16;8.40;89.10
42097;DHT22;27754;45.414;11.084;2022-11-25T17:39:43;8.50;88.40
42097;DHT22;27754;45.414;11.084;2022-11-25T17:42:13;8.40;88.40
42097;DHT22;27754;45.414;11.084;2022-11-25T17:44:42;8.30;88.40
42097;DHT22;27754;45.414;11.084;2022-11-25T17:47:15;8.30;88.60
42097;DHT22;27754;45.414;11.084;2022-11-25T17:49:42;8.20;88.90
42097;DHT22;27754;45.414;11.084;2022-11-25T17:52:11;8.10;89.10
42097;DHT22;27754;45.414;11.084;2022-11-25T17:54:38;8.10;89.30
42097;DHT22;27754;45.414;11.084;2022-11-25T17:57:08;8.00;89.50
42097;DHT22;27754;45.414;11.084;2022-11-25T17:59:37;7.90;89.60
42097;DHT22;27754;45.414;11.084;2022-11-25T18:02:19;7.90;89.80
42097;DHT22;27754;45.414;11.084;2022-11-25T18:04:47;8.00;89.30
42097;DHT22;27754;45.414;11.084;2022-11-25T18:07:15;7.90;89.20
42097;DHT22;27754;45.414;11.084;2022-11-25T18:09:42;7.80;89.50
42097;DHT22;27754;45.414;11.084;2022-11-25T18:12:26;7.80;89.40
42097;DHT22;27754;45.414;11.084;2022-11-25T18:14:54;7.90;89.20
42097;DHT22;27754;45.414;11.084;2022-11-25T18:17:22;7.90;89.00
42097;DHT22;27754;45.414;11.084;2022-11-25T18:19:49;7.80;89.00